2021 Burton Creek Trail Run- Big Blue Adventure

Age Group Results

June 20, 2021


results by Mentzer Timing lynnmentzer@sbcglobal.net

1/2 Marathon

Female Top Finishers Winners

Place Name City Bib No Age Overall Total Time Pace
1 Elizabeth Gill Tahoe city CA 845 35 10 1:48:36 8:17/M
2 Erica Sonnenberg Carnelian Bay CA 934 44 11 1:49:15 8:20/M
3 Keelie Bishop RENO NV 794 24 16 1:52:26 8:35/M
 

Male Top Finishers Winners

Place Name City Bib No Age Overall Total Time Pace
1 Stephen Moors Los Angeles CA 897 26 1 1:32:51 7:05/M
2 Ryan Ress Reno NV 916 47 2 1:37:25 7:26/M
3 Jeff Limpert Reno NV 878 45 3 1:38:51 7:33/M
 

Female 19 and Under

Place Name City Bib No Age Overall Total Time Pace
1 Ava Carlstrom Reno NV 813 17 28 2:02:56 9:23/M
 

Male 19 and Under

Place Name City Bib No Age Overall Total Time Pace
1 Leo Carlstrom Reno NV 814 16 13 1:49:37 8:22/M
2 Casey Orton Truckee CA 904 19 20 1:55:14 8:48/M
 

Female 20 to 29

Place Name City Bib No Age Overall Total Time Pace
1 Keelie Bishop RENO NV 794 24 16 1:52:26 8:35/M
2 Kelly Conway Oakland CA 821 25 38 2:08:08 9:47/M
3 Heather Hovander Nevada City CA 857 25 67 2:28:30 11:20/M
4 Madison Cross-Kaplan Oakland CA 827 21 86 2:41:09 12:18/M
5 Christina Herring Murrieta CA 852 26 89 2:43:46 12:30/M
6 Samantha Santy Loma Linda CA 923 26 90 2:43:53 12:31/M
7 Camille Colon Santa Cruz CA 819 23 91 2:44:12 12:32/M
 

Male 20 to 29

Place Name City Bib No Age Overall Total Time Pace
1 Stephen Moors Los Angeles CA 897 26 1 1:32:51 7:05/M
2 Maximilian Goetz Reno NV 847 29 24 1:59:07 9:06/M
3 Scott Rubaszewski Newcastle CA 921 22 31 2:03:05 9:24/M
4 Nathan Waddell Auburn CA 957 29 39 2:08:35 9:49/M
5 Harrison Steins San francisco CA 940 24 40 2:09:46 9:54/M
6 Andy Colombe San Francisco CA 818 27 46 2:13:08 10:10/M
7 Justin Dean Kings Beach CA 830 29 54 2:20:28 10:43/M
8 Jonathan Mireles South Lake Tahoe CA 896 29 64 2:26:48 11:12/M
9 Calvin Stickler Santa Cruz CA 943 23 92 2:44:13 12:32/M
10 Joseph Goitia Oroville CA 848 29 98 2:55:25 13:23/M
11 Sean Dougherty Prairie Village KS 832 26 99 2:56:38 13:29/M
 

Female 30 to 39

Place Name City Bib No Age Overall Total Time Pace
1 Elizabeth Gill Tahoe city CA 845 35 10 1:48:36 8:17/M
2 Nicole Palatinus Reno NV 906 36 29 2:02:58 9:23/M
3 Katie Zachariades Tahoe Vista CA 967 33 33 2:04:55 9:32/M
4 Trendi Miller Reno NV 894 37 55 2:21:18 10:47/M
5 Kristi Camara Reno NV 811 37 73 2:30:08 11:28/M
6 Vitoria Staniszewski RENO NV 939 30 80 2:36:32 11:57/M
7 Sadie Thompson Reno NV 949 35 83 2:37:34 12:02/M
8 Rebecca Michael San Francisco CA 893 35 87 2:41:12 12:18/M
9 Justine Mansfield Reno NV 885 34 88 2:42:54 12:26/M
10 Mary Rudacille Reno NV 922 33 100 2:58:09 13:36/M
11 Trista Tookey SPARKS NV 953 30 106 3:26:24 15:45/M
 

Male 30 to 39

Place Name City Bib No Age Overall Total Time Pace
1 Bryan Botma San Clemente CA 803 35 5 1:42:42 7:50/M
2 Jarad Clark Sparks NV 817 39 7 1:46:12 8:06/M
3 Jonathan Bretan San Rafael CA 806 39 8 1:47:08 8:11/M
4 Andrew Coover San Francisco CA 823 31 9 1:47:50 8:14/M
5 Anthony Olivero Sparks NV 901 38 12 1:49:19 8:21/M
6 Travis Junkin South Lake Tahoe CA 864 35 14 1:51:00 8:28/M
7 Chris Conant Chatham IL 820 38 17 1:53:17 8:39/M
8 Jay Bodenhausen Wiesbaden 799 38 21 1:56:52 8:55/M
9 Simon Werrel Beaverton OR 962 34 23 1:58:55 9:05/M
10 Zachary Martinez Greeley CO 888 32 25 1:59:08 9:06/M
11 Kevin Cisco South lake tahoe CA 816 32 30 2:03:03 9:24/M
12 Patrick Wood Reno NV 966 35 32 2:03:25 9:25/M
13 Dan Blau Sparks NV 796 34 34 2:05:45 9:36/M
14 Tyler Stewart Grass Valley CA 942 33 43 2:11:20 10:02/M
15 Anthony Marrone Kings beach CA 887 34 45 2:12:35 10:07/M
16 Kyle Johnson Reno NV 863 35 50 2:17:38 10:30/M
17 Hamir Atwal pinole CA 786 36 56 2:21:25 10:48/M
18 Tim Anderson Sparks NV 781 38 60 2:26:07 11:09/M
19 Juan Bravo Carson city NV 805 35 69 2:29:08 11:23/M
20 Eric Mansfield Reno NV 884 34 72 2:29:59 11:27/M
21 Richard Berman reno NV 793 34 78 2:33:54 11:45/M
22 Chase Benson Carmichael CA 792 38 85 2:39:11 12:09/M
23 Sagar Shenvi Nevada City CA 929 33 95 2:47:21 12:47/M
24 Cisco Arriola Truckee CA 784 34 96 2:50:16 13:00/M
25 Steven Burton Lathrop CA 809 35 102 3:00:37 13:47/M
26 Michael Schlink Kings Beach CA 924 34 103 3:08:09 14:22/M
 

Female 40 to 49

Place Name City Bib No Age Overall Total Time Pace
1 Erica Sonnenberg Carnelian Bay CA 934 44 11 1:49:15 8:20/M
2 Janet Highhill Truckee CA 853 45 35 2:06:36 9:40/M
3 Misty Macisaac Truckee CA 881 44 49 2:14:14 10:15/M
4 Linda Sutera San Diego CA 946 43 51 2:17:50 10:31/M
5 Erin Bank San Francisco CA 789 40 53 2:19:39 10:40/M
6 Sarah Duffy Soda Springs CA 833 49 61 2:26:18 11:10/M
7 Nicole Ahlgren Pleasant Hill CA 776 43 65 2:27:27 11:15/M
8 Nikki Komol Chico CA 870 42 82 2:36:54 11:59/M
9 Meg White Lakewood CO 964 46 84 2:37:35 12:02/M
10 Charise Wong San Francisco CA 965 40 93 2:44:47 12:35/M
11 Carina Kool Linda CA 871 42 104 3:08:14 14:22/M
12 Emily Walton South Lake Tahoe CA 959 45 105 3:09:07 14:26/M
 

Male 40 to 49

Place Name City Bib No Age Overall Total Time Pace
1 Ryan Ress Reno NV 916 47 2 1:37:25 7:26/M
2 Jeff Limpert Reno NV 878 45 3 1:38:51 7:33/M
3 Dan Stoll Carnelian Bay CA 970 48 4 1:42:36 7:50/M
4 Brannon Forrester Nevada City CA 839 42 6 1:43:04 7:52/M
5 Tim Macisaac Truckee CA 882 42 15 1:51:20 8:30/M
6 Alex Nelson Lakewood CO 899 40 18 1:53:24 8:39/M
7 Chris Orton Truckee CA 905 48 19 1:53:27 8:40/M
8 Matt Cassol Greenville CA 815 46 37 2:07:33 9:44/M
9 Christopher Vasche Modesto CA 955 43 48 2:13:28 10:11/M
10 Matthew Ashton Sparks NV 785 45 52 2:18:42 10:35/M
11 John Groner 972 46 57 2:21:45 10:49/M
12 Kevin Brockman Roseville CA 807 40 75 2:30:24 11:29/M
13 Paul Azzi San Diego CA 787 49 94 2:45:29 12:38/M
14 Evan Ahlgren North Hollywood CA 775 40 101 2:59:52 13:44/M
 

Female 50 to 59

Place Name City Bib No Age Overall Total Time Pace
1 Frances Finney Truckee CA 838 56 27 2:01:13 9:15/M
2 Lisa Stevens Sparks NV 941 57 47 2:13:26 10:11/M
3 Dana Peterson Voorheesville NY 908 51 59 2:24:47 11:03/M
4 Kerri Bradley 971 55 63 2:26:40 11:12/M
5 Heather Spencer Sparks NV 936 52 74 2:30:22 11:29/M
6 Stephanie Schwartz Tahoe City CA 926 53 76 2:30:25 11:29/M
7 Carole Singelais Temple NH 930 59 77 2:33:34 11:43/M
8 Sharon Merry Auburn CA 892 57 79 2:35:46 11:53/M
9 Carla Frank Healdsburg CA 840 54 107 4:35:53 21:04/M
 

Male 50 to 59

Place Name City Bib No Age Overall Total Time Pace
1 Andrew Polik Vacaville CA 912 52 22 1:57:57 9:00/M
2 Guy Johnson Reno NV 862 58 26 2:00:56 9:14/M
3 Tom Scott Truckee CA 928 50 41 2:10:07 9:56/M
4 Andrew Sorrells Chico CA 935 55 42 2:10:48 9:59/M
5 Jim Kaplan Incline Village NV 968 52 44 2:12:09 10:05/M
6 Mark Lehrmann Grapevine TX 877 55 62 2:26:20 11:10/M
7 Patrick Hagen Saint Paul MN 851 55 68 2:29:05 11:23/M
8 Dave Bondi La CA 802 53 71 2:29:57 11:27/M
9 Andrew Hudnut Sacramento CA 858 55 97 2:54:26 13:19/M
 

Female 60 to 69

Place Name City Bib No Age Overall Total Time Pace
1 Cathy Gibbs Reno NV 844 65 81 2:36:53 11:59/M
 

Male 60 to 69

Place Name City Bib No Age Overall Total Time Pace
1 John Singelais Temple NH 931 62 36 2:07:20 9:43/M
2 Michael Corneil Incline Village NV 824 61 58 2:23:47 10:59/M
3 Terry Ward El Macero CA 960 62 66 2:28:29 11:20/M
4 Skip Latham Salinas CA 874 68 70 2:29:47 11:26/M